Etihad Airways Virtual Airport Information Service

Bengaluru Kempegowda International Airport

ICAO: VOBL Country: India
Latitude: 13.1989 Longitude: 77.7056
Latest Arrival : ETD216 (OMAA-VOBL) Latest Departure : ETDJUMP (VOBL-KJFK)


WX CaptureLIVE
Data provided by noaa.gov | Recorded at 07:40:45

METAR : VOBL 150700Z VRB03KT 8000 SCT012 SCT080 29/16 Q1016 NOSIG

TAF : VOBL 150500Z 1506/1612 14010KT 6000 SCT015 SCT080 TEMPO 1509/1515 3000 TSRA RA SCT015 SCT020 FEW025CB BKN080 BECMG 1520/1521 VRB02KT TEMPO 1600/1603 5000 BR SCT010 SCT012 BECMG 1603/1604 14010KT


Runway Data for VOBL
Data provided by openaviationdata.com

Runway ID Mag Var Hdg Length Elevation Surface ILS Freq ILS Id ILS Slope

Bengaluru Kempegowda International Airport, India
Use only for reference purposes